Time;durP1;ratioP1;P1;durP2;ratioP2;P2;SDS_P1;SDS_P2;PMS_P1;PMS_P2;Temp;Humidity;BMP_temperature;BMP_pressure;BME280_temperature;BME280_humidity;BME280_pressure;Samples;Min_cycle;Max_cycle;Signal;HPM_P1;HPM_P2
2021/03/29 17:37:57;;;;;;;158.38;65.75;;;359.10;1228.80;;;;;;5112079;27;20389;-70
2021/03/29 17:40:25;;;;;;;165.40;72.35;;;358.90;1228.80;;;;;;5111486;28;20115;-70
2021/03/29 17:42:51;;;;;;;169.75;84.47;;;358.90;1228.80;;;;;;5111567;28;20039;-70
2021/03/29 17:45:17;;;;;;;168.60;86.75;;;359.00;1203.20;;;;;;5111419;28;20465;-69
2021/03/29 17:47:43;;;;;;;144.52;78.45;;;359.00;1203.20;;;;;;5111097;28;20020;-70
2021/03/29 17:50:10;;;;;;;136.27;78.05;;;359.00;1203.20;;;;;;5111331;28;20024;-70
2021/03/29 17:52:37;;;;;;;138.77;75.50;;;359.10;1177.60;;;;;;5110707;28;20473;-75
2021/03/29 17:55:05;;;;;;;161.02;73.55;;;359.10;1177.60;;;;;;5111414;28;20032;-70
2021/03/29 17:57:32;;;;;;;152.68;70.72;;;359.10;1203.20;;;;;;5109850;28;20080;-69
2021/03/29 17:59:58;;;;;;;148.57;68.90;;;359.10;1203.20;;;;;;5109760;28;20475;-69
2021/03/29 18:02:24;;;;;;;116.07;63.25;;;359.10;1228.80;;;;;;5109938;28;20024;-69
2021/03/29 18:04:50;;;;;;;122.75;62.38;;;359.10;1228.80;;;;;;5110188;28;20024;-69
2021/03/29 18:07:17;;;;;;;113.03;61.35;;;359.10;1228.80;;;;;;5106494;28;20491;-69
2021/03/29 18:09:43;;;;;;;114.97;62.95;;;359.10;1228.80;;;;;;5109935;28;20404;-69
2021/03/29 18:12:10;;;;;;;107.38;60.45;;;359.10;1203.20;;;;;;5109574;28;20024;-69
2021/03/29 18:14:36;;;;;;;104.35;58.95;;;359.00;1228.80;;;;;;5110487;28;20026;-69
2021/03/29 18:17:02;;;;;;;103.60;58.72;;;359.00;1228.80;;;;;;5109947;28;20032;-69
2021/03/29 18:19:27;;;;;;;105.45;58.85;;;358.90;1254.40;;;;;;5109508;28;20414;-69
2021/03/29 18:21:53;;;;;;;92.10;52.50;;;358.90;1228.80;;;;;;5109026;28;20119;-69
2021/03/29 18:24:19;;;;;;;90.80;55.13;;;358.90;1254.40;;;;;;5108579;28;20043;-69
2021/03/29 18:26:48;;;;;;;98.78;57.17;;;358.80;1254.40;;;;;;5110533;28;20036;-69
2021/03/29 18:29:14;;;;;;;101.18;59.10;;;358.80;1254.40;;;;;;5110569;28;20528;-69
2021/03/29 18:31:44;;;;;;;111.15;67.97;;;358.70;1254.40;;;;;;5109817;28;20016;-69
2021/03/29 18:34:11;;;;;;;128.85;74.85;;;358.70;1228.80;;;;;;5108817;28;20111;-69
2021/03/29 18:36:37;;;;;;;134.38;76.93;;;358.70;1228.80;;;;;;5110012;28;20040;-69
2021/03/29 18:39:04;;;;;;;135.13;74.70;;;358.60;1228.80;;;;;;5109234;28;20031;-69
2021/03/29 18:41:31;;;;;;;117.50;70.70;;;358.60;1228.80;;;;;;5110542;28;20020;-69
2021/03/29 18:43:56;;;;;;;105.00;64.18;;;358.60;1228.80;;;;;;5110022;28;20024;-69
2021/03/29 18:46:23;;;;;;;100.05;57.97;;;358.50;1203.20;;;;;;5109924;28;20119;-69
2021/03/29 18:48:49;;;;;;;85.80;50.50;;;358.60;1228.80;;;;;;5099115;28;20035;-69
2021/03/29 18:51:14;;;;;;;79.40;44.92;;;358.50;1203.20;;;;;;5096766;28;20404;-69
2021/03/29 18:53:40;;;;;;;74.90;38.97;;;358.50;1203.20;;;;;;5096742;28;20024;-69
2021/03/29 18:58:53;;;;;;;64.63;31.40;;;358.50;1177.60;;;;;;5045140;28;20025;-69
2021/03/29 19:01:19;;;;;;;63.55;28.92;;;358.50;1203.20;;;;;;5050689;28;20048;-69
2021/03/29 19:03:45;;;;;;;62.63;27.50;;;358.40;1177.60;;;;;;5054125;28;20056;-69
2021/03/29 19:06:11;;;;;;;65.13;25.02;;;358.40;1177.60;;;;;;5046209;28;20032;-69
2021/03/29 19:08:41;;;;;;;53.85;23.73;;;358.40;1177.60;;;;;;5050017;28;20025;-69
2021/03/29 19:11:07;;;;;;;54.28;24.25;;;358.40;1203.20;;;;;;5054007;28;20029;-69
2021/03/29 19:13:34;;;;;;;67.65;23.08;;;358.40;1177.60;;;;;;5054103;28;20025;-69
2021/03/29 19:16:04;;;;;;;66.72;25.25;;;333.70;1228.80;;;;;;5052840;28;20041;-69
2021/03/29 19:18:31;;;;;;;52.70;22.48;;;333.70;1228.80;;;;;;5041482;28;20039;-69
2021/03/29 19:20:58;;;;;;;57.90;21.73;;;333.70;1228.80;;;;;;5043333;28;20108;-69
2021/03/29 19:23:26;;;;;;;52.63;25.77;;;333.70;1228.80;;;;;;5041847;28;20026;-74
2021/03/29 19:26:01;;;;;;;59.33;28.60;;;333.60;1203.20;;;;;;5041380;28;20067;-69
2021/03/29 19:28:30;;;;;;;72.75;33.35;;;333.60;1203.20;;;;;;5043644;28;20098;-69
2021/03/29 19:30:56;;;;;;;75.72;37.03;;;333.60;1228.80;;;;;;5041167;28;20101;-69
2021/03/29 19:33:24;;;;;;;81.10;39.83;;;333.60;1228.80;;;;;;5042712;28;20036;-69
2021/03/29 19:35:50;;;;;;;75.45;38.78;;;333.50;1228.80;;;;;;5062266;28;20060;-69
2021/03/29 19:38:16;;;;;;;66.72;35.40;;;333.50;1254.40;;;;;;5093935;28;20020;-69
2021/03/29 19:40:42;;;;;;;66.45;32.83;;;333.50;1254.40;;;;;;5094377;28;20510;-69
2021/03/29 19:43:08;;;;;;;68.38;34.63;;;333.40;1280.00;;;;;;5094657;28;20023;-69
2021/03/29 19:45:34;;;;;;;73.43;35.00;;;333.40;1280.00;;;;;;5092186;28;20036;-69
2021/03/29 19:48:00;;;;;;;66.38;36.20;;;333.30;1280.00;;;;;;5091547;28;20077;-69
2021/03/29 19:50:26;;;;;;;83.38;37.60;;;333.30;1305.60;;;;;;5094405;28;20016;-69
2021/03/29 19:52:52;;;;;;;89.80;38.95;;;333.20;1305.60;;;;;;5094149;28;20774;-69
2021/03/29 19:55:18;;;;;;;84.00;43.03;;;333.20;1331.20;;;;;;5094129;28;20019;-69
2021/03/29 19:57:48;;;;;;;91.07;43.88;;;333.10;1331.20;;;;;;5093470;28;20038;-69
2021/03/29 20:00:17;;;;;;;97.20;45.15;;;333.00;1331.20;;;;;;5093095;28;20041;-69
2021/03/29 20:02:48;;;;;;;99.18;48.17;;;333.00;1356.80;;;;;;5091500;28;20036;-69
2021/03/29 20:05:19;;;;;;;111.43;53.78;;;333.00;1356.80;;;;;;5093818;28;20031;-69
2021/03/29 20:10:24;;;;;;;95.55;48.65;;;332.90;1356.80;;;;;;5091481;28;20020;-69
2021/03/29 20:12:51;;;;;;;87.47;47.13;;;332.90;1331.20;;;;;;5092618;28;20030;-70
2021/03/29 20:15:17;;;;;;;78.53;40.65;;;332.90;1331.20;;;;;;5093805;28;20051;-69
2021/03/29 20:17:43;;;;;;;70.25;33.22;;;332.90;1331.20;;;;;;5093295;28;20532;-70
2021/03/29 20:20:09;;;;;;;52.50;26.40;;;332.80;1356.80;;;;;;5093893;28;20103;-70
2021/03/29 20:22:36;;;;;;;46.15;24.60;;;332.80;1356.80;;;;;;5093380;28;20389;-70
2021/03/29 20:25:03;;;;;;;40.55;21.58;;;332.80;1356.80;;;;;;5093474;28;20376;-70
2021/03/29 20:27:29;;;;;;;34.40;19.30;;;332.80;1356.80;;;;;;5091829;28;20077;-70
2021/03/29 20:29:55;;;;;;;36.65;16.55;;;308.10;1331.20;;;;;;5093459;28;20397;-70
2021/03/29 20:32:21;;;;;;;40.70;16.33;;;308.10;1331.20;;;;;;5093041;28;20039;-70
2021/03/29 20:34:47;;;;;;;40.00;17.65;;;308.10;1331.20;;;;;;5091491;28;20032;-70
2021/03/29 20:37:13;;;;;;;39.80;20.33;;;308.10;1331.20;;;;;;5093317;28;20094;-69
2021/03/29 20:39:39;;;;;;;43.88;23.27;;;308.10;1331.20;;;;;;5093052;28;20077;-70
2021/03/29 20:42:06;;;;;;;49.72;26.55;;;308.00;1331.20;;;;;;5094123;28;20032;-69
2021/03/29 20:44:31;;;;;;;58.08;30.77;;;308.00;1331.20;;;;;;5093754;28;20103;-69
2021/03/29 20:47:00;;;;;;;68.70;35.15;;;308.00;1331.20;;;;;;5093479;28;20048;-70
2021/03/29 20:49:27;;;;;;;65.22;33.95;;;308.00;1331.20;;;;;;5093297;28;20070;-69
2021/03/29 20:51:53;;;;;;;59.28;30.02;;;307.90;1331.20;;;;;;5094331;28;20460;-69
2021/03/29 20:54:23;;;;;;;58.03;30.98;;;307.90;1331.20;;;;;;5093489;28;20067;-69
2021/03/29 20:56:49;;;;;;;51.50;31.27;;;307.90;1331.20;;;;;;5094283;28;20035;-70
2021/03/29 20:59:15;;;;;;;53.72;29.42;;;307.90;1356.80;;;;;;5093249;28;20028;-70
2021/03/29 21:01:41;;;;;;;43.55;25.10;;;307.90;1331.20;;;;;;5092901;28;20062;-69
2021/03/29 21:04:07;;;;;;;43.53;22.67;;;307.90;1331.20;;;;;;5091670;28;20056;-70
2021/03/29 21:06:33;;;;;;;41.10;19.55;;;307.90;1331.20;;;;;;5093708;28;20550;-70
2021/03/29 21:08:59;;;;;;;35.42;15.95;;;307.90;1356.80;;;;;;5093650;28;20031;-69
2021/03/29 21:11:25;;;;;;;40.90;16.83;;;307.80;1356.80;;;;;;5092261;28;20036;-70
2021/03/29 21:13:51;;;;;;;39.85;17.42;;;307.80;1382.40;;;;;;5093965;28;20020;-70
2021/03/29 21:16:17;;;;;;;41.03;16.42;;;307.90;1382.40;;;;;;5092942;28;20350;-70
2021/03/29 21:18:45;;;;;;;28.92;12.90;;;307.80;1356.80;;;;;;5094081;28;20036;-69
2021/03/29 21:21:10;;;;;;;24.80;11.10;;;307.80;1356.80;;;;;;5094016;28;20020;-70
2021/03/29 21:23:36;;;;;;;21.60;9.80;;;307.80;1356.80;;;;;;5093217;28;20426;-70
2021/03/29 21:26:02;;;;;;;19.55;8.60;;;307.80;1356.80;;;;;;5091508;28;20028;-70
2021/03/29 21:28:28;;;;;;;17.52;8.85;;;307.80;1356.80;;;;;;5092325;28;20031;-70
2021/03/29 21:30:54;;;;;;;23.02;9.20;;;307.80;1356.80;;;;;;5093150;28;20034;-70
2021/03/29 21:33:22;;;;;;;17.65;8.65;;;307.80;1356.80;;;;;;5091401;28;20024;-71
2021/03/29 21:35:48;;;;;;;20.48;9.85;;;307.80;1356.80;;;;;;5092320;28;20047;-70
2021/03/29 21:38:14;;;;;;;19.05;10.25;;;307.80;1356.80;;;;;;5093213;28;20024;-69
2021/03/29 21:40:42;;;;;;;23.05;11.30;;;307.80;1356.80;;;;;;5092534;28;20020;-71
2021/03/29 21:43:08;;;;;;;24.83;10.95;;;307.80;1356.80;;;;;;5094347;28;20020;-70
2021/03/29 21:45:34;;;;;;;15.73;8.85;;;307.80;1356.80;;;;;;5092720;28;20025;-71
2021/03/29 21:47:59;;;;;;;14.02;8.30;;;307.80;1382.40;;;;;;5092353;28;20023;-70
2021/03/29 21:50:27;;;;;;;17.15;9.77;;;307.70;1382.40;;;;;;5091918;28;20028;-71
2021/03/29 21:52:53;;;;;;;23.20;13.45;;;307.70;1356.80;;;;;;5092594;28;20058;-70
2021/03/29 21:55:19;;;;;;;25.33;14.73;;;307.70;1356.80;;;;;;5093113;28;20016;-71
2021/03/29 21:57:45;;;;;;;29.60;16.15;;;307.70;1356.80;;;;;;5092595;28;20393;-70
2021/03/29 22:00:22;;;;;;;26.58;13.23;;;307.70;1356.80;;;;;;5091080;28;20024;-71
2021/03/29 22:02:50;;;;;;;25.48;11.75;;;307.70;1356.80;;;;;;5092999;28;20032;-71
2021/03/29 22:05:16;;;;;;;19.35;10.60;;;307.70;1356.80;;;;;;5092434;28;20024;-71
2021/03/29 22:07:42;;;;;;;16.38;9.35;;;307.70;1356.80;;;;;;5093326;28;20040;-70
2021/03/29 22:10:11;;;;;;;23.88;9.27;;;307.70;1382.40;;;;;;5093384;28;20133;-70
2021/03/29 22:12:37;;;;;;;19.85;10.07;;;307.70;1382.40;;;;;;5090433;28;20028;-69
2021/03/29 22:15:15;;;;;;;20.35;9.73;;;307.60;1408.00;;;;;;5092684;28;20030;-69
2021/03/29 22:17:41;;;;;;;19.20;10.02;;;307.50;1408.00;;;;;;5091758;28;20036;-70
2021/03/29 22:20:09;;;;;;;37.25;15.68;;;307.50;1433.60;;;;;;5092615;28;20025;-70
2021/03/29 22:22:37;;;;;;;36.40;18.60;;;307.40;1433.60;;;;;;5092112;28;20115;-69
2021/03/29 22:25:04;;;;;;;32.65;14.00;;;307.40;1433.60;;;;;;5096613;28;20027;-70
2021/03/29 22:27:31;;;;;;;28.58;11.85;;;307.40;1433.60;;;;;;5094439;28;20032;-70
2021/03/29 22:30:02;;;;;;;23.20;11.25;;;307.40;1433.60;;;;;;5096920;28;20024;-70
2021/03/29 22:32:40;;;;;;;20.48;10.82;;;307.30;1433.60;;;;;;5095660;28;20052;-70
2021/03/29 22:43:31;;;;;;;17.98;7.85;;;307.20;1459.20;;;;;;5034322;28;20028;-70
2021/03/29 22:45:57;;;;;;;16.63;8.90;;;282.50;1408.00;;;;;;5018349;28;20034;-70
2021/03/29 22:48:23;;;;;;;19.13;8.63;;;282.50;1408.00;;;;;;5034465;28;20036;-70
2021/03/29 22:50:49;;;;;;;17.45;9.25;;;282.50;1408.00;;;;;;5034426;28;20479;-70
2021/03/29 22:53:15;;;;;;;18.38;10.20;;;282.50;1382.40;;;;;;5034405;28;20055;-70
2021/03/29 22:55:40;;;;;;;18.88;9.27;;;282.50;1382.40;;;;;;5034216;28;20041;-71
2021/03/29 22:58:06;;;;;;;19.98;9.25;;;282.50;1382.40;;;;;;5034541;28;20087;-71
2021/03/29 23:00:33;;;;;;;17.70;9.52;;;282.50;1408.00;;;;;;5017549;28;20033;-71
2021/03/29 23:02:58;;;;;;;16.30;9.15;;;282.50;1408.00;;;;;;5034366;28;20565;-70
2021/03/29 23:05:24;;;;;;;16.75;10.00;;;282.50;1433.60;;;;;;5034105;28;20025;-70
2021/03/29 23:07:50;;;;;;;21.92;9.93;;;282.40;1408.00;;;;;;5033898;28;20029;-70
2021/03/29 23:10:16;;;;;;;20.85;10.25;;;282.40;1408.00;;;;;;5034175;28;20048;-70
2021/03/29 23:12:43;;;;;;;19.05;10.57;;;282.40;1408.00;;;;;;5034031;28;20441;-70
2021/03/29 23:15:09;;;;;;;18.65;10.02;;;282.30;1433.60;;;;;;5046129;28;20037;-70
2021/03/29 23:17:36;;;;;;;29.30;11.60;;;282.30;1433.60;;;;;;5053693;28;20036;-70
2021/03/29 23:20:04;;;;;;;26.42;13.07;;;282.30;1459.20;;;;;;5066636;28;20028;-70
2021/03/29 23:22:30;;;;;;;27.35;13.73;;;282.20;1459.20;;;;;;5096139;28;20028;-70
2021/03/29 23:24:56;;;;;;;26.35;13.63;;;282.20;1459.20;;;;;;5096246;28;20024;-70
2021/03/29 23:27:22;;;;;;;26.48;13.60;;;282.10;1459.20;;;;;;5094791;28;20035;-70
2021/03/29 23:29:48;;;;;;;28.25;11.82;;;282.00;1459.20;;;;;;5096202;28;20381;-70
2021/03/29 23:32:14;;;;;;;22.88;12.13;;;282.00;1459.20;;;;;;5096129;28;20028;-70
2021/03/29 23:34:39;;;;;;;24.25;11.75;;;281.90;1459.20;;;;;;5095838;28;20476;-70
2021/03/29 23:37:05;;;;;;;23.27;12.80;;;281.90;1459.20;;;;;;5094419;28;20056;-71
2021/03/29 23:39:31;;;;;;;25.17;12.65;;;281.80;1484.80;;;;;;5095645;28;20027;-71
2021/03/29 23:41:57;;;;;;;28.63;13.18;;;281.80;1484.80;;;;;;5095908;28;20028;-71
2021/03/29 23:44:23;;;;;;;23.67;13.45;;;281.70;1484.80;;;;;;5095933;28;20020;-71
2021/03/29 23:46:49;;;;;;;25.45;14.02;;;281.70;1510.40;;;;;;5095674;28;20020;-71
2021/03/29 23:49:15;;;;;;;23.13;13.80;;;281.60;1510.40;;;;;;5095969;28;20036;-71
2021/03/29 23:51:40;;;;;;;26.73;12.55;;;281.60;1484.80;;;;;;5096132;28;20499;-71
2021/03/29 23:54:07;;;;;;;28.33;13.93;;;256.90;1459.20;;;;;;5095619;28;20024;-71
2021/03/29 23:56:32;;;;;;;26.80;13.23;;;256.80;1459.20;;;;;;5095529;28;20154;-72
2021/03/29 23:58:58;;;;;;;25.40;13.23;;;256.80;1459.20;;;;;;5095626;28;20042;-72
